createdAt,value
2022-10-10T00:01:33.104Z,5.82
2022-10-10T00:04:01.737Z,4.47
2022-10-10T00:06:33.003Z,4.97
2022-10-10T00:09:01.821Z,5.00
2022-10-10T00:11:29.613Z,4.85
2022-10-10T00:13:57.114Z,4.00
2022-10-10T00:16:28.689Z,5.78
2022-10-10T00:18:55.883Z,4.63
2022-10-10T00:21:23.082Z,5.25
2022-10-10T00:23:53.018Z,3.65
2022-10-10T00:26:21.649Z,5.53
2022-10-10T00:28:49.070Z,6.43
2022-10-10T00:31:16.479Z,3.45
2022-10-10T00:33:46.919Z,3.85
2022-10-10T00:36:18.736Z,11.13
2022-10-10T00:38:50.845Z,3.60
2022-10-10T00:41:26.883Z,4.95
2022-10-10T00:44:11.989Z,4.65
2022-10-10T00:46:40.044Z,3.40
2022-10-10T00:49:18.807Z,4.25
2022-10-10T00:51:53.834Z,4.28
2022-10-10T00:54:24.335Z,4.60
2022-10-10T00:57:05.576Z,3.15
2022-10-10T00:59:34.955Z,2.83
2022-10-10T01:02:02.178Z,4.53
2022-10-10T01:04:34.894Z,3.85
2022-10-10T01:07:20.187Z,5.03
2022-10-10T01:09:50.578Z,3.33
2022-10-10T01:12:23.235Z,2.72
2022-10-10T01:15:33.764Z,3.28
2022-10-10T01:18:43.065Z,4.18
2022-10-10T01:22:05.668Z,4.32
2022-10-10T01:25:35.166Z,4.82
2022-10-10T01:28:35.791Z,3.83
2022-10-10T01:31:08.484Z,5.60
2022-10-10T01:34:22.384Z,3.63
2022-10-10T01:37:17.667Z,4.88
2022-10-10T01:40:18.003Z,3.35
2022-10-10T01:42:58.315Z,3.50
2022-10-10T01:45:26.794Z,4.40
2022-10-10T01:48:01.621Z,4.75
2022-10-10T01:50:52.110Z,5.30
2022-10-10T01:53:41.982Z,5.07
2022-10-10T01:56:34.524Z,2.75
2022-10-10T01:59:32.018Z,3.25
2022-10-10T02:02:23.208Z,5.32
2022-10-10T02:05:07.252Z,3.72
2022-10-10T02:08:30.896Z,4.47
2022-10-10T02:11:08.348Z,5.25
2022-10-10T02:13:56.295Z,5.07
2022-10-10T02:16:34.526Z,5.05
2022-10-10T02:19:02.446Z,2.28
2022-10-10T02:21:30.948Z,5.28
2022-10-10T02:24:06.595Z,2.33
2022-10-10T02:26:36.232Z,4.07
2022-10-10T02:29:15.935Z,2.83
2022-10-10T02:32:20.719Z,4.75
2022-10-10T02:34:55.491Z,2.55
2022-10-10T02:37:24.328Z,2.92
2022-10-10T02:40:01.532Z,2.13
2022-10-10T02:42:29.731Z,3.67
2022-10-10T02:44:57.835Z,7.07
2022-10-10T02:47:25.280Z,2.33
2022-10-10T02:49:52.262Z,3.20
2022-10-10T02:52:19.214Z,2.70
2022-10-10T02:57:44.704Z,2.65
2022-10-10T03:00:15.442Z,2.55
2022-10-10T03:02:42.976Z,3.17
2022-10-10T03:05:11.719Z,3.00
2022-10-10T03:07:38.838Z,3.20
2022-10-10T03:10:07.344Z,5.97
2022-10-10T03:12:35.794Z,4.03
2022-10-10T03:15:07.922Z,5.95
2022-10-10T03:17:38.109Z,2.47
2022-10-10T03:20:06.973Z,3.28
2022-10-10T03:22:34.219Z,6.03
2022-10-10T03:25:01.051Z,7.00
2022-10-10T03:27:28.242Z,3.38
2022-10-10T03:29:55.115Z,2.33
2022-10-10T03:32:22.108Z,3.20
2022-10-10T03:34:49.045Z,3.63
2022-10-10T03:38:00.123Z,2.05
2022-10-10T03:40:31.839Z,7.63
2022-10-10T03:42:59.752Z,7.35
2022-10-10T03:45:39.467Z,3.53
2022-10-10T03:48:21.747Z,2.83
2022-10-10T03:50:49.774Z,3.95
2022-10-10T03:53:17.008Z,3.33
2022-10-10T03:55:44.037Z,3.25
2022-10-10T03:58:11.564Z,3.30
2022-10-10T04:00:38.968Z,3.90
2022-10-10T04:03:06.658Z,4.10
2022-10-10T04:05:36.070Z,3.38
2022-10-10T04:08:04.341Z,4.63
2022-10-10T04:10:34.505Z,3.30
2022-10-10T04:13:01.414Z,5.00
2022-10-10T04:15:33.060Z,4.93
2022-10-10T04:18:00.542Z,6.95
2022-10-10T04:20:27.735Z,4.05
2022-10-10T04:22:55.076Z,3.50
2022-10-10T04:25:22.994Z,3.72
2022-10-10T04:27:50.592Z,3.95
2022-10-10T04:30:19.405Z,3.15
2022-10-10T04:32:46.395Z,4.97
2022-10-10T04:35:15.785Z,6.97
2022-10-10T04:37:48.833Z,4.28
2022-10-10T04:40:26.826Z,4.20
2022-10-10T04:43:20.258Z,6.35
2022-10-10T04:45:47.612Z,7.30
2022-10-10T04:48:14.661Z,5.93
2022-10-10T04:50:41.872Z,5.50
2022-10-10T04:53:10.167Z,6.93
2022-10-10T04:55:37.299Z,5.82
2022-10-10T04:58:11.924Z,7.85
2022-10-10T05:00:41.578Z,3.97
2022-10-10T05:03:11.389Z,4.43
2022-10-10T05:05:39.686Z,12.50
2022-10-10T05:08:06.528Z,12.02
2022-10-10T05:10:38.763Z,8.43
2022-10-10T05:13:13.212Z,9.10
2022-10-10T05:15:40.934Z,8.13
2022-10-10T05:18:08.458Z,6.68
2022-10-10T05:20:36.794Z,6.05
2022-10-10T05:23:04.370Z,6.03
2022-10-10T05:25:31.331Z,7.20
2022-10-10T05:27:58.152Z,7.05
2022-10-10T05:30:25.073Z,6.07
2022-10-10T05:32:52.568Z,9.90
2022-10-10T05:35:20.003Z,11.02
2022-10-10T05:37:46.813Z,6.40
2022-10-10T05:40:13.955Z,6.50
2022-10-10T05:42:41.210Z,7.70
2022-10-10T05:45:08.878Z,10.63
2022-10-10T05:47:35.758Z,6.88
2022-10-10T05:50:02.560Z,7.15
2022-10-10T05:52:32.370Z,10.30
2022-10-10T05:54:59.216Z,6.57
2022-10-10T05:57:26.022Z,5.88
2022-10-10T05:59:52.970Z,6.20
2022-10-10T06:02:19.839Z,5.05
2022-10-10T06:04:46.698Z,7.40
2022-10-10T06:07:13.653Z,10.00
2022-10-10T06:09:40.674Z,6.55
2022-10-10T06:12:07.537Z,8.68
2022-10-10T06:14:34.466Z,7.40
2022-10-10T06:17:01.307Z,7.55
2022-10-10T06:19:28.254Z,9.43
2022-10-10T06:21:55.211Z,9.70
2022-10-10T06:24:22.131Z,5.38
2022-10-10T06:26:48.979Z,6.45
2022-10-10T06:29:15.825Z,8.38
2022-10-10T06:31:42.692Z,4.82
2022-10-10T06:34:09.575Z,8.38
2022-10-10T06:36:36.453Z,6.38
2022-10-10T06:39:03.544Z,8.35
2022-10-10T06:41:30.457Z,6.32
2022-10-10T06:43:57.426Z,9.13
2022-10-10T06:46:24.295Z,7.18
2022-10-10T06:48:51.116Z,8.43
2022-10-10T06:51:18.739Z,6.18
2022-10-10T06:53:46.592Z,6.15
2022-10-10T06:56:26.384Z,5.07
2022-10-10T06:58:55.311Z,4.25
2022-10-10T07:01:24.734Z,5.85
2022-10-10T07:03:51.977Z,4.90
2022-10-10T07:06:18.806Z,6.28
2022-10-10T07:08:45.707Z,9.02
2022-10-10T07:11:12.959Z,5.72
2022-10-10T07:13:40.389Z,11.68
2022-10-10T07:16:07.842Z,5.70
2022-10-10T07:18:36.764Z,6.32
2022-10-10T07:21:05.185Z,7.78
2022-10-10T07:23:32.858Z,5.97
2022-10-10T07:26:04.069Z,8.32
2022-10-10T07:28:32.316Z,6.20
2022-10-10T07:31:03.999Z,7.20
2022-10-10T07:33:44.914Z,8.00
2022-10-10T07:36:15.440Z,10.90
2022-10-10T07:38:42.298Z,6.93
2022-10-10T07:41:12.994Z,14.85
2022-10-10T07:43:40.142Z,9.82
2022-10-10T07:46:15.091Z,5.15
2022-10-10T07:48:41.890Z,5.70
2022-10-10T07:51:09.964Z,6.95
2022-10-10T07:53:36.845Z,8.68
2022-10-10T07:56:09.151Z,8.48
2022-10-10T07:58:36.466Z,8.23
2022-10-10T08:01:10.930Z,6.82
2022-10-10T08:03:38.829Z,7.05
2022-10-10T08:06:09.577Z,9.13
2022-10-10T08:08:43.776Z,15.68
2022-10-10T08:11:15.877Z,9.32
2022-10-10T08:13:42.786Z,6.50
2022-10-10T08:16:09.642Z,7.47
2022-10-10T08:18:36.862Z,8.57
2022-10-10T08:21:10.472Z,7.43
2022-10-10T08:23:37.870Z,13.73
2022-10-10T08:26:09.067Z,6.13
2022-10-10T08:28:38.175Z,9.45
2022-10-10T08:31:14.037Z,8.23
2022-10-10T08:33:43.539Z,7.50
2022-10-10T08:36:15.814Z,11.98
2022-10-10T08:38:43.466Z,10.82
2022-10-10T08:41:40.592Z,8.77
2022-10-10T08:44:36.766Z,10.95
2022-10-10T08:47:09.758Z,12.30
2022-10-10T08:49:47.675Z,9.82
2022-10-10T08:52:50.586Z,11.40
2022-10-10T08:55:26.276Z,15.75
2022-10-10T08:58:08.331Z,12.50
2022-10-10T09:00:44.871Z,12.57
2022-10-10T09:03:37.062Z,18.80
2022-10-10T09:06:15.777Z,13.20
2022-10-10T09:09:28.269Z,14.10
2022-10-10T09:12:23.886Z,13.70
2022-10-10T09:15:02.830Z,10.55
2022-10-10T09:17:54.860Z,9.05
2022-10-10T09:20:48.471Z,7.50
2022-10-10T09:23:49.957Z,9.00
2022-10-10T09:26:25.264Z,14.52
2022-10-10T09:29:42.128Z,12.88
2022-10-10T09:32:18.061Z,7.47
2022-10-10T09:34:52.363Z,9.02
2022-10-10T09:37:45.920Z,9.52
2022-10-10T09:40:31.345Z,13.85
2022-10-10T09:43:10.746Z,8.82
2022-10-10T09:45:48.116Z,8.43
2022-10-10T09:48:15.104Z,14.93
2022-10-10T09:50:43.977Z,8.00
2022-10-10T09:53:17.089Z,7.40
2022-10-10T09:55:47.109Z,9.00
2022-10-10T09:58:42.047Z,14.25
2022-10-10T10:01:25.451Z,9.73
2022-10-10T10:04:28.664Z,6.07
2022-10-10T10:07:25.305Z,5.65
2022-10-10T10:09:59.522Z,12.70
2022-10-10T10:12:39.335Z,11.38
2022-10-10T10:15:22.698Z,9.40
2022-10-10T10:18:21.768Z,9.35
2022-10-10T10:21:10.744Z,7.22
2022-10-10T10:24:03.340Z,12.48
2022-10-10T10:26:48.474Z,10.82
2022-10-10T10:29:33.110Z,9.27
2022-10-10T10:32:03.335Z,8.35
2022-10-10T10:35:01.713Z,16.15
2022-10-10T10:38:00.506Z,10.73
2022-10-10T10:40:40.259Z,6.32
2022-10-10T10:43:19.511Z,8.85
2022-10-10T10:46:03.589Z,10.07
2022-10-10T10:48:55.080Z,5.95
2022-10-10T10:51:39.773Z,6.70
2022-10-10T10:54:31.960Z,5.80
2022-10-10T10:57:11.297Z,11.65
2022-10-10T11:00:25.826Z,8.95
2022-10-10T11:05:16.717Z,7.22
2022-10-10T11:06:15.438Z,9.60
2022-10-10T11:09:05.694Z,8.85
2022-10-10T11:11:55.572Z,13.43
2022-10-10T11:15:00.949Z,6.22
2022-10-10T11:17:44.492Z,9.60
2022-10-10T11:20:38.943Z,7.60
2022-10-10T11:23:17.717Z,5.43
2022-10-10T11:26:00.350Z,10.00
2022-10-10T11:28:42.495Z,10.10
2022-10-10T11:31:18.562Z,10.15
2022-10-10T11:33:59.117Z,9.48
2022-10-10T11:36:31.590Z,5.93
2022-10-10T11:39:15.630Z,8.43
2022-10-10T11:41:55.674Z,11.13
2022-10-10T11:44:35.354Z,11.25
2022-10-10T11:47:22.556Z,8.50
2022-10-10T11:50:15.287Z,11.63
2022-10-10T11:53:04.995Z,6.63
2022-10-10T11:56:02.030Z,7.82
2022-10-10T11:58:44.143Z,10.30
2022-10-10T12:01:31.048Z,10.52
2022-10-10T12:03:58.873Z,10.93
2022-10-10T12:06:53.088Z,9.30
2022-10-10T12:09:39.556Z,13.10
2022-10-10T12:12:22.670Z,5.18
2022-10-10T12:14:55.734Z,7.93
2022-10-10T12:17:32.366Z,10.45
2022-10-10T12:20:16.872Z,9.60
2022-10-10T12:22:44.141Z,12.93
2022-10-10T12:25:10.920Z,8.05
2022-10-10T12:27:47.118Z,17.48
2022-10-10T12:30:25.109Z,11.75
2022-10-10T12:32:55.727Z,17.02
2022-10-10T12:35:41.717Z,17.02
2022-10-10T12:39:42.871Z,9.32
2022-10-10T12:42:48.446Z,9.68
2022-10-10T12:45:30.416Z,8.55
2022-10-10T12:48:19.342Z,12.60
2022-10-10T12:50:58.232Z,11.50
2022-10-10T12:53:32.803Z,11.63
2022-10-10T12:56:02.973Z,12.15
2022-10-10T12:58:38.355Z,6.90
2022-10-10T13:01:26.440Z,7.22
2022-10-10T13:03:55.801Z,10.85
2022-10-10T13:06:42.953Z,16.15
2022-10-10T13:09:22.276Z,9.77
2022-10-10T13:12:02.246Z,9.98
2022-10-10T13:14:45.906Z,9.18
2022-10-10T13:17:41.625Z,12.35
2022-10-10T13:22:56.886Z,11.63
2022-10-10T13:25:24.353Z,12.18
2022-10-10T13:27:51.444Z,8.30
2022-10-10T13:30:21.948Z,7.40
2022-10-10T13:32:52.752Z,6.78
2022-10-10T13:35:30.290Z,10.38
2022-10-10T13:38:00.692Z,7.82
2022-10-10T13:40:28.056Z,5.68
2022-10-10T13:42:56.269Z,9.95
2022-10-10T13:45:30.232Z,11.98
2022-10-10T13:48:12.530Z,18.88
2022-10-10T13:50:47.059Z,9.60
2022-10-10T13:53:29.129Z,6.05
2022-10-10T13:56:27.941Z,9.80
2022-10-10T13:59:11.814Z,9.38
2022-10-10T14:01:48.448Z,7.63
2022-10-10T14:04:38.188Z,6.90
2022-10-10T14:07:30.629Z,9.25
2022-10-10T14:10:08.860Z,9.23
2022-10-10T14:13:02.118Z,10.15
2022-10-10T14:15:41.028Z,6.22
2022-10-10T14:18:20.361Z,8.27
2022-10-10T14:20:49.033Z,3.55
2022-10-10T14:23:16.431Z,10.02
2022-10-10T14:25:46.700Z,7.65
2022-10-10T14:28:34.392Z,6.10
2022-10-10T14:31:01.629Z,11.05
2022-10-10T14:33:28.698Z,8.88
2022-10-10T14:35:58.234Z,15.65
2022-10-10T14:38:26.989Z,7.38
2022-10-10T14:40:55.561Z,6.85
2022-10-10T14:43:26.146Z,5.97
2022-10-10T14:45:54.482Z,11.40
2022-10-10T14:48:21.869Z,7.18
2022-10-10T14:50:51.197Z,10.88
2022-10-10T14:53:18.753Z,7.18
2022-10-10T14:55:46.411Z,6.78
2022-10-10T14:58:22.764Z,8.40
2022-10-10T15:00:53.196Z,7.72
2022-10-10T15:03:21.059Z,5.00
2022-10-10T15:05:48.596Z,11.15
2022-10-10T15:08:19.004Z,8.35
2022-10-10T15:10:49.814Z,8.25
2022-10-10T15:13:41.923Z,8.50
2022-10-10T15:16:08.760Z,6.60
2022-10-10T15:21:22.946Z,7.53
2022-10-10T15:23:49.955Z,7.40
2022-10-10T15:26:16.932Z,9.65
2022-10-10T15:28:43.807Z,12.52
2022-10-10T15:31:10.726Z,7.20
2022-10-10T15:33:37.533Z,6.20
2022-10-10T15:36:10.432Z,8.07
2022-10-10T15:38:38.410Z,7.75
2022-10-10T15:41:09.346Z,7.63
2022-10-10T15:43:52.003Z,10.20
2022-10-10T15:46:20.872Z,7.47
2022-10-10T15:48:48.212Z,9.13
2022-10-10T15:51:16.189Z,4.53
2022-10-10T15:53:43.952Z,11.10
2022-10-10T15:56:16.354Z,9.85
2022-10-10T15:58:43.870Z,9.40
2022-10-10T16:01:20.417Z,5.57
2022-10-10T16:03:49.472Z,5.05
2022-10-10T16:06:21.362Z,7.95
2022-10-10T16:08:55.748Z,5.75
2022-10-10T16:11:27.593Z,6.72
2022-10-10T16:13:58.359Z,9.02
2022-10-10T16:16:32.130Z,9.13
2022-10-10T16:18:59.973Z,6.60
2022-10-10T16:21:32.038Z,7.30
2022-10-10T16:24:01.703Z,9.35
2022-10-10T16:26:42.950Z,7.82
2022-10-10T16:29:15.551Z,6.53
2022-10-10T16:31:45.503Z,9.45
2022-10-10T16:34:16.092Z,12.45
2022-10-10T16:36:48.874Z,8.05
2022-10-10T16:39:19.036Z,9.82
2022-10-10T16:42:00.216Z,11.15
2022-10-10T16:44:27.634Z,7.78
2022-10-10T16:46:54.496Z,6.88
2022-10-10T16:49:23.581Z,5.82
2022-10-10T16:51:50.907Z,9.18
2022-10-10T16:54:18.289Z,9.82
2022-10-10T16:56:46.777Z,8.55
2022-10-10T16:59:14.177Z,4.63
2022-10-10T17:01:41.397Z,5.18
2022-10-10T17:04:08.785Z,3.38
2022-10-10T17:06:38.631Z,6.75
2022-10-10T17:09:11.557Z,2.47
2022-10-10T17:11:38.847Z,1.90
2022-10-10T17:14:12.814Z,2.53
2022-10-10T17:17:32.031Z,3.67
2022-10-10T17:23:23.575Z,5.75
2022-10-10T17:26:03.946Z,6.10
2022-10-10T17:31:56.458Z,6.10
2022-10-10T17:38:52.237Z,7.35
2022-10-10T17:41:48.128Z,6.50
2022-10-10T17:48:09.651Z,3.17
2022-10-10T17:50:37.354Z,11.32
2022-10-10T17:54:08.471Z,6.43
2022-10-10T17:56:50.892Z,8.43
2022-10-10T17:59:24.275Z,8.50
2022-10-10T18:01:58.789Z,6.22
2022-10-10T18:09:32.658Z,7.03
2022-10-10T18:12:15.483Z,3.80
2022-10-10T18:16:10.978Z,9.07
2022-10-10T18:19:14.271Z,5.82
2022-10-10T18:23:01.053Z,5.68
2022-10-10T18:26:46.653Z,10.40
2022-10-10T18:29:21.371Z,12.25
2022-10-10T18:32:09.851Z,12.30
2022-10-10T18:34:54.949Z,7.82
2022-10-10T18:37:27.732Z,4.57
2022-10-10T18:39:54.905Z,10.23
2022-10-10T18:42:22.573Z,6.85
2022-10-10T18:44:53.788Z,10.30
2022-10-10T18:47:24.031Z,8.50
2022-10-10T18:49:54.648Z,9.57
2022-10-10T18:52:23.320Z,7.13
2022-10-10T18:54:51.177Z,6.63
2022-10-10T18:57:18.496Z,10.48
2022-10-10T18:59:45.621Z,8.10
2022-10-10T19:02:12.597Z,8.77
2022-10-10T19:12:20.222Z,4.37
2022-10-10T19:14:47.194Z,7.38
2022-10-10T19:32:06.413Z,9.63
2022-10-10T19:35:40.401Z,9.77
2022-10-10T19:42:48.861Z,4.32
2022-10-10T19:50:39.360Z,7.55
2022-10-10T19:58:28.116Z,7.28
2022-10-10T20:01:44.251Z,5.78
2022-10-10T20:04:41.398Z,8.48
2022-10-10T20:08:13.964Z,9.93
2022-10-10T20:10:43.784Z,11.02
2022-10-10T20:13:15.088Z,17.73
2022-10-10T20:15:46.457Z,10.75
2022-10-10T20:18:17.017Z,10.45
2022-10-10T20:20:51.879Z,7.95
2022-10-10T20:23:24.722Z,6.60
2022-10-10T20:25:55.411Z,12.80
2022-10-10T20:28:23.324Z,7.60
2022-10-10T20:30:52.114Z,8.88
2022-10-10T20:33:21.664Z,9.25
2022-10-10T20:35:52.411Z,9.50
2022-10-10T20:38:23.763Z,6.97
2022-10-10T20:40:51.222Z,6.55
2022-10-10T20:43:19.084Z,8.10
2022-10-10T20:45:46.183Z,10.27
2022-10-10T20:48:13.510Z,9.02
2022-10-10T20:50:41.192Z,9.75
2022-10-10T20:53:10.679Z,7.10
2022-10-10T20:55:37.924Z,6.38
2022-10-10T20:58:05.776Z,7.07
2022-10-10T21:00:36.794Z,6.60
2022-10-10T21:03:04.881Z,5.78
2022-10-10T21:05:34.662Z,4.80
2022-10-10T21:08:07.636Z,9.25
2022-10-10T21:10:39.776Z,6.32
2022-10-10T21:13:10.623Z,8.38
2022-10-10T21:15:45.330Z,5.15
2022-10-10T21:18:13.094Z,7.93
2022-10-10T21:20:48.873Z,6.63
2022-10-10T21:23:17.811Z,10.05
2022-10-10T21:25:45.891Z,7.55
2022-10-10T21:28:13.245Z,7.22
2022-10-10T21:30:50.550Z,7.75
2022-10-10T21:33:23.270Z,8.75
2022-10-10T21:35:59.312Z,7.75
2022-10-10T21:38:30.948Z,10.45
2022-10-10T21:41:10.165Z,12.45
2022-10-10T21:43:41.712Z,12.63
2022-10-10T21:46:16.537Z,9.95
2022-10-10T21:48:44.981Z,8.35
2022-10-10T21:51:13.248Z,8.48
2022-10-10T21:53:40.943Z,7.78
2022-10-10T21:56:10.713Z,7.38
2022-10-10T21:58:48.627Z,8.75
2022-10-10T22:01:23.551Z,5.88
2022-10-10T22:03:53.676Z,8.60
2022-10-10T22:06:24.601Z,8.25
2022-10-10T22:08:56.455Z,10.07
2022-10-10T22:11:27.345Z,6.20
2022-10-10T22:13:56.363Z,10.13
2022-10-10T22:16:24.362Z,7.53
2022-10-10T22:18:57.858Z,11.80
2022-10-10T22:21:30.637Z,8.10
2022-10-10T22:24:02.013Z,8.93
2022-10-10T22:26:31.109Z,7.55
2022-10-10T22:28:59.000Z,7.60
2022-10-10T22:31:32.143Z,9.40
2022-10-10T22:34:30.853Z,10.43
2022-10-10T22:37:16.158Z,8.00
2022-10-10T22:40:00.557Z,8.73
2022-10-10T22:42:31.723Z,10.10
2022-10-10T22:44:59.511Z,8.38
2022-10-10T22:47:33.234Z,9.63
2022-10-10T22:50:01.811Z,6.30
2022-10-10T22:52:33.851Z,7.45
2022-10-10T22:55:01.706Z,6.95
2022-10-10T22:57:29.158Z,11.23
2022-10-10T22:59:56.815Z,6.53
2022-10-10T23:02:24.184Z,8.10
2022-10-10T23:05:10.791Z,11.55
2022-10-10T23:07:51.361Z,15.38
2022-10-10T23:10:54.045Z,15.82
2022-10-10T23:13:29.531Z,12.73
2022-10-10T23:16:00.658Z,13.38
2022-10-10T23:18:44.125Z,15.90
2022-10-10T23:21:22.538Z,11.63
2022-10-10T23:23:55.147Z,12.80
2022-10-10T23:26:25.344Z,15.75
2022-10-10T23:32:19.869Z,14.60
2022-10-10T23:35:33.998Z,17.13
2022-10-10T23:41:18.613Z,19.48
2022-10-10T23:43:54.193Z,17.42
2022-10-10T23:46:52.545Z,16.17
2022-10-10T23:49:30.480Z,16.10
2022-10-10T23:52:15.477Z,17.25
2022-10-10T23:55:10.334Z,24.65
